Time;durP1;ratioP1;P1;durP2;ratioP2;P2;SDS_P1;SDS_P2;PMS_P1;PMS_P2;Temp;Humidity;BMP_temperature;BMP_pressure;BME280_temperature;BME280_humidity;BME280_pressure;Samples;Min_cycle;Max_cycle;Signal;HPM_P1;HPM_P2
2023/11/19 00:02:12;;;;;;;8.80;4.78;;;;;;;;;;10279447;28;20090;-62
2023/11/19 00:07:13;;;;;;;10.50;4.72;;;;;;;;;;10286000;28;20034;-62
2023/11/19 00:12:14;;;;;;;7.07;4.90;;;;;;;;;;10285387;28;20522;-62
2023/11/19 00:17:15;;;;;;;8.30;4.10;;;;;;;;;;10284487;28;20027;-64
2023/11/19 00:22:15;;;;;;;9.55;4.75;;;;;;;;;;10283578;28;20034;-64
2023/11/19 00:27:16;;;;;;;6.32;4.60;;;;;;;;;;10284841;28;20027;-64
2023/11/19 00:32:16;;;;;;;8.02;4.43;;;;;;;;;;10285240;28;20027;-64
2023/11/19 00:37:17;;;;;;;7.80;4.22;;;;;;;;;;10285565;28;20034;-63
2023/11/19 00:42:18;;;;;;;9.52;4.15;;;;;;;;;;10284726;28;20266;-63
2023/11/19 00:47:22;;;;;;;6.40;3.90;;;;;;;;;;10284938;28;20494;-63
2023/11/19 00:52:22;;;;;;;5.82;4.40;;;;;;;;;;10281251;28;20039;-63
2023/11/19 00:57:24;;;;;;;7.50;4.15;;;;;;;;;;10284800;28;20077;-63
2023/11/19 01:02:24;;;;;;;6.97;4.70;;;;;;;;;;10279028;28;20090;-63
2023/11/19 01:07:26;;;;;;;6.10;4.13;;;;;;;;;;10269193;28;20120;-63
2023/11/19 01:12:26;;;;;;;6.35;3.90;;;;;;;;;;10274940;28;20035;-63
2023/11/19 01:17:27;;;;;;;9.00;3.90;;;;;;;;;;10280712;28;20027;-63
2023/11/19 01:22:28;;;;;;;5.10;3.88;;;;;;;;;;10274929;28;20035;-63
2023/11/19 01:27:28;;;;;;;5.90;4.18;;;;;;;;;;10283119;28;20063;-63
2023/11/19 01:32:29;;;;;;;6.68;3.97;;;;;;;;;;10284762;28;20026;-63
2023/11/19 01:37:31;;;;;;;6.38;3.67;;;;;;;;;;10283445;28;20031;-64
2023/11/19 01:42:39;;;;;;;4.95;4.05;;;;;;;;;;10298103;28;20029;-63
2023/11/19 01:47:40;;;;;;;7.75;4.50;;;;;;;;;;10289553;28;20375;-64
2023/11/19 01:52:41;;;;;;;4.53;3.38;;;;;;;;;;10291273;28;20047;-61
2023/11/19 01:57:41;;;;;;;8.07;4.10;;;;;;;;;;10291002;28;20039;-62
2023/11/19 02:02:44;;;;;;;5.72;3.70;;;;;;;;;;10285608;28;20030;-63
2023/11/19 02:07:46;;;;;;;5.70;3.80;;;;;;;;;;10290891;28;20455;-62
2023/11/19 02:12:46;;;;;;;7.40;3.55;;;;;;;;;;10277937;28;20034;-62
2023/11/19 02:17:47;;;;;;;4.10;3.70;;;;;;;;;;10293470;28;20031;-62
2023/11/19 02:22:48;;;;;;;4.68;3.25;;;;;;;;;;10290369;28;20553;-63
2023/11/19 02:27:57;;;;;;;5.82;3.88;;;;;;;;;;10277852;28;20446;-63
2023/11/19 02:33:01;;;;;;;5.95;3.90;;;;;;;;;;10289865;28;20047;-63
2023/11/19 02:38:06;;;;;;;7.88;3.63;;;;;;;;;;10289978;28;20537;-62
2023/11/19 02:43:08;;;;;;;7.18;3.97;;;;;;;;;;10286938;28;20070;-62
2023/11/19 02:48:09;;;;;;;5.47;3.38;;;;;;;;;;10288053;28;20043;-63
2023/11/19 02:53:10;;;;;;;5.72;3.42;;;;;;;;;;10285345;28;20049;-63
2023/11/19 02:58:19;;;;;;;4.53;3.80;;;;;;;;;;10287424;28;20030;-62
2023/11/19 03:03:22;;;;;;;4.35;3.35;;;;;;;;;;10287071;28;20033;-63
2023/11/19 03:08:23;;;;;;;5.35;3.75;;;;;;;;;;10276617;28;20031;-62
2023/11/19 03:13:23;;;;;;;3.80;3.40;;;;;;;;;;10279790;28;20386;-62
2023/11/19 03:18:24;;;;;;;3.53;3.17;;;;;;;;;;10270698;28;20027;-63
2023/11/19 03:23:27;;;;;;;4.72;3.38;;;;;;;;;;10276891;28;20031;-62
2023/11/19 03:28:28;;;;;;;6.18;3.72;;;;;;;;;;10285760;28;20155;-62
2023/11/19 03:33:28;;;;;;;6.75;3.50;;;;;;;;;;10287562;28;20367;-65
2023/11/19 03:38:29;;;;;;;6.00;3.72;;;;;;;;;;10283272;28;20386;-63
2023/11/19 03:43:31;;;;;;;3.13;2.83;;;;;;;;;;10286604;28;20490;-64
2023/11/19 03:48:31;;;;;;;3.75;3.03;;;;;;;;;;10287070;28;20030;-62
2023/11/19 03:53:32;;;;;;;6.13;3.50;;;;;;;;;;10286389;28;20070;-63
2023/11/19 03:58:33;;;;;;;20.73;3.63;;;;;;;;;;10286562;28;20522;-62
2023/11/19 04:03:34;;;;;;;5.13;3.45;;;;;;;;;;10285875;28;20030;-63
2023/11/19 04:08:35;;;;;;;4.78;3.28;;;;;;;;;;10285585;28;20047;-62
2023/11/19 04:13:36;;;;;;;5.18;3.45;;;;;;;;;;10285129;28;20549;-66
2023/11/19 04:18:36;;;;;;;4.97;3.22;;;;;;;;;;10285634;28;20089;-66
2023/11/19 04:23:37;;;;;;;4.95;3.53;;;;;;;;;;10286502;28;20026;-63
2023/11/19 04:28:37;;;;;;;3.55;2.97;;;;;;;;;;10285173;28;20035;-67
2023/11/19 04:33:38;;;;;;;5.20;3.10;;;;;;;;;;10285159;28;20109;-65
2023/11/19 04:38:39;;;;;;;5.30;2.95;;;;;;;;;;10285095;28;20034;-62
2023/11/19 04:43:40;;;;;;;3.03;2.72;;;;;;;;;;10284547;28;20046;-66
2023/11/19 04:48:40;;;;;;;3.92;2.80;;;;;;;;;;10284609;28;20254;-62
2023/11/19 04:53:41;;;;;;;6.65;3.30;;;;;;;;;;10284516;28;20043;-63
2023/11/19 04:58:41;;;;;;;3.65;2.85;;;;;;;;;;10284201;28;20034;-63
2023/11/19 05:03:42;;;;;;;6.72;3.10;;;;;;;;;;10284088;28;20042;-62
2023/11/19 05:08:44;;;;;;;7.03;2.88;;;;;;;;;;10284264;28;20035;-62
2023/11/19 05:13:45;;;;;;;4.03;2.88;;;;;;;;;;10284255;28;20182;-63
2023/11/19 05:18:46;;;;;;;4.30;3.30;;;;;;;;;;10282699;28;20290;-63
2023/11/19 05:23:46;;;;;;;4.28;2.80;;;;;;;;;;10283633;28;20182;-62
2023/11/19 05:28:48;;;;;;;3.28;2.72;;;;;;;;;;10283890;28;20023;-62
2023/11/19 05:33:48;;;;;;;2.47;2.22;;;;;;;;;;10284453;28;20038;-62
2023/11/19 05:38:49;;;;;;;6.10;2.97;;;;;;;;;;10284048;28;20034;-62
2023/11/19 05:43:49;;;;;;;5.05;2.92;;;;;;;;;;10283631;28;20031;-63
2023/11/19 05:48:51;;;;;;;3.13;2.70;;;;;;;;;;10283461;28;20034;-62
2023/11/19 05:53:51;;;;;;;5.50;2.72;;;;;;;;;;10282702;28;20058;-62
2023/11/19 05:58:52;;;;;;;3.17;2.65;;;;;;;;;;10283055;28;20035;-62
2023/11/19 06:03:52;;;;;;;4.05;2.88;;;;;;;;;;10282175;28;20039;-62
2023/11/19 06:08:53;;;;;;;3.97;2.58;;;;;;;;;;10283065;28;20093;-62
2023/11/19 06:13:53;;;;;;;3.72;2.90;;;;;;;;;;10282513;28;20031;-62
2023/11/19 06:18:54;;;;;;;4.55;3.20;;;;;;;;;;10282707;28;20030;-62
2023/11/19 06:23:55;;;;;;;4.90;2.70;;;;;;;;;;10282526;28;20038;-62
2023/11/19 06:28:55;;;;;;;3.97;2.90;;;;;;;;;;10283187;28;20042;-62
2023/11/19 06:33:56;;;;;;;6.28;3.20;;;;;;;;;;10289850;28;20023;-61
2023/11/19 06:38:57;;;;;;;8.25;2.72;;;;;;;;;;10278161;28;20090;-62
2023/11/19 06:43:58;;;;;;;3.03;2.72;;;;;;;;;;10285123;28;20110;-62
2023/11/19 06:48:58;;;;;;;3.05;2.50;;;;;;;;;;10289206;28;20039;-62
2023/11/19 06:53:59;;;;;;;3.05;2.60;;;;;;;;;;10288652;28;20071;-61
2023/11/19 06:59:00;;;;;;;2.85;2.40;;;;;;;;;;10287568;28;20030;-62
2023/11/19 07:04:02;;;;;;;3.55;2.95;;;;;;;;;;10287908;28;20030;-63
2023/11/19 07:09:12;;;;;;;6.85;2.80;;;;;;;;;;10282284;28;20309;-61
2023/11/19 07:14:12;;;;;;;3.67;2.53;;;;;;;;;;10290034;28;20038;-63
2023/11/19 07:19:13;;;;;;;12.48;2.90;;;;;;;;;;10287427;28;20038;-62
2023/11/19 07:24:14;;;;;;;3.10;2.80;;;;;;;;;;10287135;28;20490;-62
2023/11/19 07:29:16;;;;;;;4.40;3.05;;;;;;;;;;10280716;28;20069;-63
2023/11/19 07:34:16;;;;;;;4.35;2.70;;;;;;;;;;10280887;28;20023;-61
2023/11/19 07:39:17;;;;;;;3.58;2.65;;;;;;;;;;10286343;28;20043;-63
2023/11/19 07:44:18;;;;;;;3.78;2.40;;;;;;;;;;10285789;28;20038;-61
2023/11/19 07:49:18;;;;;;;8.50;2.67;;;;;;;;;;10278167;28;20031;-63
2023/11/19 07:54:21;;;;;;;9.23;6.07;;;;;;;;;;10287419;28;20043;-62
2023/11/19 07:59:22;;;;;;;14.07;8.20;;;;;;;;;;10287013;28;20038;-64
2023/11/19 08:04:22;;;;;;;9.70;7.65;;;;;;;;;;10284369;28;20054;-66
2023/11/19 08:09:23;;;;;;;16.40;8.38;;;;;;;;;;10286619;28;20045;-61
2023/11/19 08:14:24;;;;;;;13.88;9.60;;;;;;;;;;10284932;28;20030;-62
2023/11/19 08:19:24;;;;;;;13.05;9.27;;;;;;;;;;10285248;28;20037;-64
2023/11/19 08:24:26;;;;;;;11.50;9.02;;;;;;;;;;10285318;28;20511;-62
2023/11/19 08:29:27;;;;;;;15.40;7.97;;;;;;;;;;10280564;28;20030;-62
2023/11/19 08:34:28;;;;;;;16.13;8.95;;;;;;;;;;10280663;28;20058;-63
2023/11/19 08:39:30;;;;;;;12.90;8.27;;;;;;;;;;10276908;28;20117;-66
2023/11/19 08:44:31;;;;;;;11.50;8.10;;;;;;;;;;10283193;28;20038;-62
2023/11/19 08:49:31;;;;;;;11.77;7.10;;;;;;;;;;10275025;28;20513;-61
2023/11/19 08:54:32;;;;;;;16.85;6.28;;;;;;;;;;10268599;28;20510;-61
2023/11/19 08:59:33;;;;;;;11.00;6.25;;;;;;;;;;10282540;28;20047;-60
2023/11/19 09:04:34;;;;;;;8.60;5.45;;;;;;;;;;10280630;28;20043;-62
2023/11/19 09:09:36;;;;;;;18.80;6.43;;;;;;;;;;10295134;28;20034;-60
2023/11/19 09:14:36;;;;;;;16.27;5.32;;;;;;;;;;10286300;28;20030;-62
2023/11/19 09:19:37;;;;;;;10.30;5.35;;;;;;;;;;10288000;28;20023;-61
2023/11/19 09:24:38;;;;;;;7.60;4.85;;;;;;;;;;10276294;28;20410;-60
2023/11/19 09:29:38;;;;;;;12.50;4.95;;;;;;;;;;10281654;28;20035;-60
2023/11/19 09:34:39;;;;;;;10.18;4.38;;;;;;;;;;10287978;28;20050;-60
2023/11/19 09:39:43;;;;;;;7.53;4.05;;;;;;;;;;10281514;28;20034;-62
2023/11/19 09:44:43;;;;;;;8.35;4.32;;;;;;;;;;10283633;28;20035;-60
2023/11/19 09:49:44;;;;;;;7.28;4.28;;;;;;;;;;10283696;28;20487;-61
2023/11/19 09:54:45;;;;;;;5.50;4.40;;;;;;;;;;10279399;28;20053;-66
2023/11/19 09:59:47;;;;;;;8.32;3.92;;;;;;;;;;10285274;28;20463;-68
2023/11/19 10:04:49;;;;;;;5.68;4.05;;;;;;;;;;10291485;28;20023;-61
2023/11/19 10:09:50;;;;;;;13.07;4.63;;;;;;;;;;10280471;28;20039;-61
2023/11/19 10:14:51;;;;;;;6.82;4.43;;;;;;;;;;10286137;28;20105;-73
2023/11/19 10:19:51;;;;;;;5.22;3.72;;;;;;;;;;10292056;28;20046;-60
2023/11/19 10:24:52;;;;;;;5.50;3.88;;;;;;;;;;10270402;28;20462;-60
2023/11/19 10:29:53;;;;;;;6.30;3.85;;;;;;;;;;10278821;28;20038;-67
2023/11/19 10:35:06;;;;;;;5.18;3.88;;;;;;;;;;10283641;28;20410;-60
2023/11/19 10:40:10;;;;;;;6.75;3.60;;;;;;;;;;10270444;28;20114;-69
2023/11/19 10:45:26;;;;;;;7.75;3.90;;;;;;;;;;10283875;28;20045;-60
2023/11/19 10:50:27;;;;;;;13.85;3.83;;;;;;;;;;10286895;28;20125;-60
2023/11/19 10:55:30;;;;;;;6.38;3.60;;;;;;;;;;10298827;28;20080;-60
2023/11/19 11:00:38;;;;;;;6.63;3.88;;;;;;;;;;10281442;28;20027;-61
2023/11/19 11:05:40;;;;;;;;;;;;;;;;;;10291915;28;20030;-60
2023/11/19 11:10:55;;;;;;;11.00;4.07;;;;;;;;;;10278898;28;20017;-60
2023/11/19 11:16:00;;;;;;;8.70;4.03;;;;;;;;;;10274689;28;20026;-65
2023/11/19 11:21:10;;;;;;;8.05;3.92;;;;;;;;;;10267911;28;20113;-60
2023/11/19 11:26:48;;;;;;;8.52;3.90;;;;;;;;;;10278988;28;20158;-60
2023/11/19 11:32:18;;;;;;;5.22;3.42;;;;;;;;;;10269959;28;20491;-61
2023/11/19 11:37:47;;;;;;;6.50;3.97;;;;;;;;;;10257635;28;20483;-63
2023/11/19 11:42:48;;;;;;;8.40;3.42;;;;;;;;;;10259584;28;20608;-60
2023/11/19 11:47:54;;;;;;;13.25;3.72;;;;;;;;;;10263224;28;20039;-61
2023/11/19 11:52:58;;;;;;;9.75;3.88;;;;;;;;;;10259124;28;20053;-75
2023/11/19 11:57:59;;;;;;;7.22;3.60;;;;;;;;;;10266763;28;20388;-60
2023/11/19 12:03:01;;;;;;;6.22;3.90;;;;;;;;;;10266617;28;20054;-61
2023/11/19 12:08:06;;;;;;;6.45;3.95;;;;;;;;;;10288313;28;20074;-61
2023/11/19 12:13:07;;;;;;;8.52;4.30;;;;;;;;;;10285578;28;20027;-60
2023/11/19 12:18:08;;;;;;;9.00;4.05;;;;;;;;;;10286536;28;20026;-60
2023/11/19 12:23:09;;;;;;;5.97;3.80;;;;;;;;;;10279450;28;20441;-61
2023/11/19 12:28:14;;;;;;;5.68;3.97;;;;;;;;;;10279764;28;20043;-61
2023/11/19 12:33:16;;;;;;;6.78;4.07;;;;;;;;;;10285430;28;20118;-61
2023/11/19 12:38:25;;;;;;;7.60;3.88;;;;;;;;;;10286635;28;20488;-63
2023/11/19 12:43:26;;;;;;;7.68;3.95;;;;;;;;;;10285141;28;20089;-60
2023/11/19 12:48:26;;;;;;;6.50;3.85;;;;;;;;;;10280893;28;20474;-60
2023/11/19 12:53:28;;;;;;;5.93;4.03;;;;;;;;;;10268264;28;20059;-67
2023/11/19 12:58:36;;;;;;;5.85;3.92;;;;;;;;;;10251754;28;20438;-60
2023/11/19 13:03:38;;;;;;;6.28;4.13;;;;;;;;;;10278557;28;20023;-61
2023/11/19 13:08:41;;;;;;;7.55;4.20;;;;;;;;;;10269398;28;20026;-61
2023/11/19 13:14:04;;;;;;;7.30;3.97;;;;;;;;;;10282014;28;20391;-60
2023/11/19 13:19:05;;;;;;;7.28;3.78;;;;;;;;;;10284909;28;20080;-63
2023/11/19 13:24:08;;;;;;;6.45;4.05;;;;;;;;;;10282896;28;20123;-60
2023/11/19 13:29:10;;;;;;;5.28;3.72;;;;;;;;;;10278261;28;20046;-61
2023/11/19 13:34:10;;;;;;;6.35;4.15;;;;;;;;;;10284223;28;20038;-61
2023/11/19 13:39:12;;;;;;;6.68;4.47;;;;;;;;;;10284749;28;20062;-62
2023/11/19 13:44:12;;;;;;;6.78;3.67;;;;;;;;;;10289519;28;20090;-60
2023/11/19 13:49:13;;;;;;;8.98;4.47;;;;;;;;;;10260295;28;20042;-60
2023/11/19 13:54:14;;;;;;;4.72;3.42;;;;;;;;;;10288412;28;20074;-61
2023/11/19 13:59:14;;;;;;;7.53;3.95;;;;;;;;;;10265398;28;20054;-60
2023/11/19 14:04:15;;;;;;;4.43;3.35;;;;;;;;;;10267206;28;20030;-60
2023/11/19 14:09:16;;;;;;;6.82;3.50;;;;;;;;;;10266487;28;20027;-61
2023/11/19 14:14:16;;;;;;;4.82;3.28;;;;;;;;;;10275873;28;20254;-61
2023/11/19 14:19:17;;;;;;;5.45;3.53;;;;;;;;;;10262915;28;20035;-63
2023/11/19 14:24:17;;;;;;;5.10;3.78;;;;;;;;;;10266532;28;20023;-62
2023/11/19 14:29:18;;;;;;;6.15;3.70;;;;;;;;;;10274813;28;20031;-62
2023/11/19 14:34:19;;;;;;;8.60;3.72;;;;;;;;;;10259502;28;20037;-61
2023/11/19 14:39:19;;;;;;;8.20;3.53;;;;;;;;;;10260838;28;20023;-61
2023/11/19 14:44:20;;;;;;;5.63;3.20;;;;;;;;;;10256317;28;20434;-61
2023/11/19 14:49:21;;;;;;;7.55;3.30;;;;;;;;;;10255277;28;20028;-62
2023/11/19 14:54:22;;;;;;;6.03;3.67;;;;;;;;;;10256591;28;20066;-60
2023/11/19 14:59:22;;;;;;;9.25;3.40;;;;;;;;;;10255701;28;20046;-62
2023/11/19 15:04:23;;;;;;;5.53;3.30;;;;;;;;;;10256361;28;20019;-61
2023/11/19 15:09:24;;;;;;;6.20;3.22;;;;;;;;;;10251370;28;20086;-60
2023/11/19 15:14:25;;;;;;;4.57;3.30;;;;;;;;;;10259100;28;20058;-61
2023/11/19 15:19:25;;;;;;;6.90;3.67;;;;;;;;;;10255512;28;20019;-61
2023/11/19 15:24:26;;;;;;;5.85;3.28;;;;;;;;;;10258027;28;20019;-70
2023/11/19 15:29:26;;;;;;;4.82;3.45;;;;;;;;;;10261094;28;20066;-61
2023/11/19 15:34:27;;;;;;;5.82;3.20;;;;;;;;;;10255123;28;20023;-63
2023/11/19 15:39:29;;;;;;;4.93;3.42;;;;;;;;;;10263492;28;20530;-61
2023/11/19 15:44:29;;;;;;;4.57;3.45;;;;;;;;;;10268134;28;20062;-61
2023/11/19 15:49:31;;;;;;;8.07;3.08;;;;;;;;;;10256043;28;20039;-61
2023/11/19 15:54:31;;;;;;;5.32;3.17;;;;;;;;;;10282435;28;20446;-60
2023/11/19 15:59:32;;;;;;;5.45;3.10;;;;;;;;;;10286636;28;20039;-61
2023/11/19 16:04:32;;;;;;;4.05;3.40;;;;;;;;;;10286140;28;20031;-62
2023/11/19 16:09:33;;;;;;;4.97;3.15;;;;;;;;;;10286657;28;20037;-76
2023/11/19 16:14:34;;;;;;;5.65;3.63;;;;;;;;;;10287391;28;20089;-62
2023/11/19 16:19:36;;;;;;;5.68;2.75;;;;;;;;;;10286055;28;20031;-61
2023/11/19 16:24:37;;;;;;;4.80;3.38;;;;;;;;;;10286418;28;20035;-60
2023/11/19 16:29:37;;;;;;;8.52;3.45;;;;;;;;;;10276398;28;20035;-64
2023/11/19 16:34:42;;;;;;;6.47;3.58;;;;;;;;;;10255759;28;20035;-61
2023/11/19 16:39:43;;;;;;;5.43;3.22;;;;;;;;;;10249232;28;20032;-61
2023/11/19 16:44:44;;;;;;;8.10;3.70;;;;;;;;;;10257349;28;20522;-61
2023/11/19 16:49:45;;;;;;;4.20;3.30;;;;;;;;;;10258709;28;20042;-61
2023/11/19 16:54:45;;;;;;;4.30;3.10;;;;;;;;;;10252473;28;20654;-60
2023/11/19 16:59:48;;;;;;;4.32;3.33;;;;;;;;;;10264161;28;20426;-60
2023/11/19 17:04:49;;;;;;;4.75;3.00;;;;;;;;;;10290409;28;20030;-60
2023/11/19 17:09:49;;;;;;;5.63;3.25;;;;;;;;;;10284909;28;20490;-61
2023/11/19 17:14:52;;;;;;;7.70;3.45;;;;;;;;;;10289323;28;20487;-60
2023/11/19 17:19:53;;;;;;;7.57;3.45;;;;;;;;;;10292997;28;20035;-68
2023/11/19 17:24:54;;;;;;;14.68;3.03;;;;;;;;;;10294328;28;20031;-60
2023/11/19 17:29:56;;;;;;;6.82;3.60;;;;;;;;;;10275903;28;20043;-61
2023/11/19 17:34:56;;;;;;;11.02;3.95;;;;;;;;;;10284937;28;20101;-60
2023/11/19 17:39:57;;;;;;;8.95;4.45;;;;;;;;;;10286236;28;20081;-62
2023/11/19 17:44:58;;;;;;;13.88;4.53;;;;;;;;;;10276264;28;20050;-62
2023/11/19 17:49:59;;;;;;;9.02;4.03;;;;;;;;;;10269984;28;20051;-70
2023/11/19 17:55:01;;;;;;;11.40;4.40;;;;;;;;;;10273555;28;20399;-60
2023/11/19 18:00:05;;;;;;;13.15;4.57;;;;;;;;;;10280798;28;20449;-61
2023/11/19 18:05:06;;;;;;;9.98;4.35;;;;;;;;;;10286746;28;20030;-61
2023/11/19 18:10:08;;;;;;;8.80;4.15;;;;;;;;;;10274852;28;20482;-61
2023/11/19 18:15:12;;;;;;;14.23;4.90;;;;;;;;;;10282843;28;20026;-60
2023/11/19 18:20:14;;;;;;;19.60;4.32;;;;;;;;;;10284134;28;20031;-61
2023/11/19 18:25:17;;;;;;;6.95;3.92;;;;;;;;;;10280810;28;20042;-61
2023/11/19 18:30:18;;;;;;;13.90;4.20;;;;;;;;;;10276270;28;20108;-60
2023/11/19 18:35:23;;;;;;;12.13;4.68;;;;;;;;;;10296309;28;20568;-64
2023/11/19 18:40:24;;;;;;;12.30;5.15;;;;;;;;;;10301414;28;20043;-61
2023/11/19 18:45:25;;;;;;;7.10;4.78;;;;;;;;;;10283635;28;20438;-64
2023/11/19 18:50:26;;;;;;;6.40;4.22;;;;;;;;;;10294328;28;20057;-60
2023/11/19 18:55:28;;;;;;;11.05;4.55;;;;;;;;;;10290681;28;20038;-60
2023/11/19 19:00:29;;;;;;;12.18;5.30;;;;;;;;;;10288118;28;20035;-63
2023/11/19 19:05:29;;;;;;;11.43;5.53;;;;;;;;;;10273320;28;20399;-60
2023/11/19 19:10:30;;;;;;;11.73;5.47;;;;;;;;;;10287915;28;20391;-60
2023/11/19 19:15:30;;;;;;;10.23;5.00;;;;;;;;;;10287117;28;20379;-60
2023/11/19 19:20:31;;;;;;;7.80;5.40;;;;;;;;;;10284910;28;20374;-60
2023/11/19 19:25:32;;;;;;;16.73;5.32;;;;;;;;;;10287369;28;20059;-61
2023/11/19 19:30:33;;;;;;;14.80;5.63;;;;;;;;;;10285992;28;20061;-61
2023/11/19 19:35:34;;;;;;;10.95;5.43;;;;;;;;;;10287701;28;20027;-60
2023/11/19 19:40:35;;;;;;;18.67;6.18;;;;;;;;;;10287226;28;20495;-60
2023/11/19 19:45:36;;;;;;;13.23;5.80;;;;;;;;;;10289387;28;20031;-60
2023/11/19 19:50:36;;;;;;;16.30;6.03;;;;;;;;;;10286350;28;20054;-60
2023/11/19 19:55:37;;;;;;;10.07;6.05;;;;;;;;;;10287074;28;20026;-60
2023/11/19 20:00:38;;;;;;;10.73;5.93;;;;;;;;;;10286730;28;20375;-60
2023/11/19 20:05:38;;;;;;;11.80;6.03;;;;;;;;;;10286653;28;20026;-60
2023/11/19 20:10:39;;;;;;;10.40;5.75;;;;;;;;;;10285731;28;20023;-60
2023/11/19 20:15:41;;;;;;;9.75;5.97;;;;;;;;;;10285725;28;20040;-61
2023/11/19 20:20:43;;;;;;;15.57;6.50;;;;;;;;;;10285819;28;20023;-69
2023/11/19 20:25:43;;;;;;;15.32;6.72;;;;;;;;;;10285687;28;20042;-60
2023/11/19 20:30:44;;;;;;;16.60;6.70;;;;;;;;;;10285246;28;20037;-61
2023/11/19 20:35:45;;;;;;;13.85;6.95;;;;;;;;;;10285321;28;20045;-60
2023/11/19 20:40:46;;;;;;;8.95;5.78;;;;;;;;;;10273574;28;20031;-60
2023/11/19 20:45:46;;;;;;;14.43;6.60;;;;;;;;;;10290894;28;20459;-67
2023/11/19 20:50:47;;;;;;;15.77;6.80;;;;;;;;;;10283744;28;20066;-60
2023/11/19 20:55:48;;;;;;;12.98;7.32;;;;;;;;;;10284756;28;20510;-61
2023/11/19 21:00:49;;;;;;;14.27;7.32;;;;;;;;;;10284670;28;20031;-60
2023/11/19 21:05:54;;;;;;;14.43;6.80;;;;;;;;;;10282720;28;20031;-62
2023/11/19 21:10:54;;;;;;;12.00;7.10;;;;;;;;;;10283665;28;20034;-61
2023/11/19 21:15:59;;;;;;;11.48;7.30;;;;;;;;;;10282699;28;20039;-60
2023/11/19 21:21:00;;;;;;;12.48;7.93;;;;;;;;;;10283630;28;20426;-61
2023/11/19 21:26:01;;;;;;;17.15;8.23;;;;;;;;;;10283244;28;20085;-61
2023/11/19 21:31:01;;;;;;;16.48;7.35;;;;;;;;;;10283171;28;20057;-61
2023/11/19 21:36:03;;;;;;;13.30;7.75;;;;;;;;;;10283469;28;20023;-71
2023/11/19 21:41:04;;;;;;;10.88;7.50;;;;;;;;;;10279297;28;20625;-61
2023/11/19 21:46:05;;;;;;;12.05;7.90;;;;;;;;;;10282931;28;20261;-62
2023/11/19 21:51:06;;;;;;;11.90;7.40;;;;;;;;;;10282486;28;20126;-61
2023/11/19 21:56:06;;;;;;;12.02;7.80;;;;;;;;;;10277296;28;20063;-71
2023/11/19 22:01:07;;;;;;;11.30;7.13;;;;;;;;;;10282937;28;20027;-60
2023/11/19 22:06:08;;;;;;;13.55;7.68;;;;;;;;;;10281101;28;20023;-61
2023/11/19 22:11:08;;;;;;;14.05;7.47;;;;;;;;;;10266213;28;20305;-61
2023/11/19 22:16:09;;;;;;;10.73;7.07;;;;;;;;;;10265669;28;20351;-61
2023/11/19 22:21:09;;;;;;;15.20;7.82;;;;;;;;;;10256680;28;20178;-61
2023/11/19 22:26:10;;;;;;;13.48;7.53;;;;;;;;;;10265651;28;20019;-60
2023/11/19 22:31:12;;;;;;;13.65;6.72;;;;;;;;;;10281281;28;20031;-61
2023/11/19 22:36:12;;;;;;;10.32;6.72;;;;;;;;;;10258906;28;20509;-60
2023/11/19 22:41:13;;;;;;;16.42;7.95;;;;;;;;;;10251839;28;20062;-60
2023/11/19 22:46:13;;;;;;;11.57;7.50;;;;;;;;;;10281359;28;20077;-60
2023/11/19 22:51:14;;;;;;;10.52;7.68;;;;;;;;;;10250102;28;1118711;-60
2023/11/19 22:56:16;;;;;;;14.40;7.82;;;;;;;;;;10289242;28;20209;-60
2023/11/19 23:01:20;;;;;;;13.70;8.00;;;;;;;;;;10291126;28;20091;-63
2023/11/19 23:06:20;;;;;;;11.95;8.02;;;;;;;;;;10288232;28;20066;-60
2023/11/19 23:11:21;;;;;;;15.05;9.02;;;;;;;;;;10289528;28;20110;-59
2023/11/19 23:16:23;;;;;;;14.02;7.93;;;;;;;;;;10288794;28;20034;-62
2023/11/19 23:21:23;;;;;;;12.02;8.40;;;;;;;;;;10289770;28;20042;-60
2023/11/19 23:26:24;;;;;;;12.38;8.07;;;;;;;;;;10289433;28;20038;-61
2023/11/19 23:31:24;;;;;;;12.70;8.50;;;;;;;;;;10282927;28;20093;-61
2023/11/19 23:36:25;;;;;;;15.82;8.90;;;;;;;;;;10287348;28;20363;-62
2023/11/19 23:41:26;;;;;;;13.70;8.18;;;;;;;;;;10297635;28;20046;-62
2023/11/19 23:46:26;;;;;;;11.10;7.90;;;;;;;;;;10285927;28;20026;-62
2023/11/19 23:51:27;;;;;;;13.00;8.15;;;;;;;;;;10286292;28;20050;-62
2023/11/19 23:56:27;;;;;;;15.55;7.72;;;;;;;;;;10286548;28;20027;-61
